sensor_id;sensor_type;location;lat;lon;timestamp;temperature;humidity
24374;DHT22;12498;50.880;12.096;2023-05-10T00:00:12;11.80;1.00
24374;DHT22;12498;50.880;12.096;2023-05-10T00:02:38;11.80;1.00
24374;DHT22;12498;50.880;12.096;2023-05-10T00:05:04;11.70;31.60
24374;DHT22;12498;50.880;12.096;2023-05-10T00:07:30;11.70;99.90
24374;DHT22;12498;50.880;12.096;2023-05-10T00:09:56;11.70;56.30
24374;DHT22;12498;50.880;12.096;2023-05-10T00:12:22;11.70;87.20
24374;DHT22;12498;50.880;12.096;2023-05-10T00:14:47;11.80;1.00
24374;DHT22;12498;50.880;12.096;2023-05-10T00:17:13;11.60;99.90
24374;DHT22;12498;50.880;12.096;2023-05-10T00:22:04;11.50;1.00
24374;DHT22;12498;50.880;12.096;2023-05-10T00:24:30;11.70;1.00
24374;DHT22;12498;50.880;12.096;2023-05-10T00:29:22;11.50;1.00
24374;DHT22;12498;50.880;12.096;2023-05-10T00:31:47;11.50;1.00
24374;DHT22;12498;50.880;12.096;2023-05-10T00:34:13;11.50;18.20
24374;DHT22;12498;50.880;12.096;2023-05-10T00:39:05;11.40;1.00
24374;DHT22;12498;50.880;12.096;2023-05-10T00:41:30;11.40;61.20
24374;DHT22;12498;50.880;12.096;2023-05-10T00:43:58;11.50;1.00
24374;DHT22;12498;50.880;12.096;2023-05-10T00:48:51;11.30;99.90
24374;DHT22;12498;50.880;12.096;2023-05-10T00:51:17;11.30;99.90
24374;DHT22;12498;50.880;12.096;2023-05-10T00:53:44;11.40;93.60
24374;DHT22;12498;50.880;12.096;2023-05-10T00:56:10;11.70;1.00
24374;DHT22;12498;50.880;12.096;2023-05-10T00:58:36;11.40;1.00
24374;DHT22;12498;50.880;12.096;2023-05-10T01:01:02;11.50;1.00
24374;DHT22;12498;50.880;12.096;2023-05-10T01:05:54;11.50;99.90
24374;DHT22;12498;50.880;12.096;2023-05-10T01:08:20;11.60;1.00
24374;DHT22;12498;50.880;12.096;2023-05-10T01:10:46;11.60;99.90
24374;DHT22;12498;50.880;12.096;2023-05-10T01:15:44;11.60;1.00
24374;DHT22;12498;50.880;12.096;2023-05-10T01:18:11;11.70;99.90
24374;DHT22;12498;50.880;12.096;2023-05-10T01:20:41;11.70;1.00
24374;DHT22;12498;50.880;12.096;2023-05-10T01:23:30;11.70;1.00
24374;DHT22;12498;50.880;12.096;2023-05-10T01:26:13;11.80;99.90
24374;DHT22;12498;50.880;12.096;2023-05-10T01:37:20;11.80;1.00
24374;DHT22;12498;50.880;12.096;2023-05-10T01:39:58;12.10;19.10
24374;DHT22;12498;50.880;12.096;2023-05-10T01:42:29;12.00;1.00
24374;DHT22;12498;50.880;12.096;2023-05-10T01:45:07;12.30;1.00
24374;DHT22;12498;50.880;12.096;2023-05-10T01:47:35;12.00;1.00
24374;DHT22;12498;50.880;12.096;2023-05-10T01:50:04;12.00;1.00
24374;DHT22;12498;50.880;12.096;2023-05-10T01:52:32;12.10;1.00
24374;DHT22;12498;50.880;12.096;2023-05-10T01:55:02;12.10;1.60
24374;DHT22;12498;50.880;12.096;2023-05-10T01:57:34;12.10;1.00
24374;DHT22;12498;50.880;12.096;2023-05-10T02:00:02;12.10;1.00
24374;DHT22;12498;50.880;12.096;2023-05-10T02:02:32;12.10;1.00
24374;DHT22;12498;50.880;12.096;2023-05-10T02:04:59;12.20;99.90
24374;DHT22;12498;50.880;12.096;2023-05-10T02:07:26;12.10;99.90
24374;DHT22;12498;50.880;12.096;2023-05-10T02:09:55;12.20;99.90
24374;DHT22;12498;50.880;12.096;2023-05-10T02:12:22;12.40;99.90
24374;DHT22;12498;50.880;12.096;2023-05-10T02:14:51;12.10;99.90
24374;DHT22;12498;50.880;12.096;2023-05-10T02:17:18;12.20;99.90
24374;DHT22;12498;50.880;12.096;2023-05-10T02:19:44;12.20;99.90
24374;DHT22;12498;50.880;12.096;2023-05-10T02:22:12;12.20;99.90
24374;DHT22;12498;50.880;12.096;2023-05-10T02:24:39;12.20;1.00
24374;DHT22;12498;50.880;12.096;2023-05-10T02:29:33;12.30;99.90
24374;DHT22;12498;50.880;12.096;2023-05-10T02:32:00;12.30;1.00
24374;DHT22;12498;50.880;12.096;2023-05-10T02:34:26;12.30;99.90
24374;DHT22;12498;50.880;12.096;2023-05-10T02:36:53;12.20;99.90
24374;DHT22;12498;50.880;12.096;2023-05-10T02:39:21;12.30;99.90
24374;DHT22;12498;50.880;12.096;2023-05-10T02:41:48;12.30;99.90
24374;DHT22;12498;50.880;12.096;2023-05-10T02:44:17;12.60;99.90
24374;DHT22;12498;50.880;12.096;2023-05-10T02:46:44;12.30;99.90
24374;DHT22;12498;50.880;12.096;2023-05-10T02:49:10;12.30;99.90
24374;DHT22;12498;50.880;12.096;2023-05-10T02:51:40;12.40;99.90
24374;DHT22;12498;50.880;12.096;2023-05-10T02:54:19;12.40;99.90
24374;DHT22;12498;50.880;12.096;2023-05-10T02:56:52;12.40;99.90
24374;DHT22;12498;50.880;12.096;2023-05-10T02:59:19;12.60;99.90
24374;DHT22;12498;50.880;12.096;2023-05-10T03:01:45;12.30;1.00
24374;DHT22;12498;50.880;12.096;2023-05-10T03:09:03;12.30;1.00
24374;DHT22;12498;50.880;12.096;2023-05-10T03:11:37;12.40;1.00
24374;DHT22;12498;50.880;12.096;2023-05-10T03:16:57;12.50;99.90
24374;DHT22;12498;50.880;12.096;2023-05-10T03:19:43;12.50;99.90
24374;DHT22;12498;50.880;12.096;2023-05-10T03:22:13;12.50;1.00
24374;DHT22;12498;50.880;12.096;2023-05-10T03:24:41;12.50;1.00
24374;DHT22;12498;50.880;12.096;2023-05-10T03:27:08;12.70;1.00
24374;DHT22;12498;50.880;12.096;2023-05-10T03:29:33;12.50;1.00
24374;DHT22;12498;50.880;12.096;2023-05-10T03:32:00;12.60;1.00
24374;DHT22;12498;50.880;12.096;2023-05-10T03:34:26;12.60;1.00
24374;DHT22;12498;50.880;12.096;2023-05-10T03:36:52;12.50;99.90
24374;DHT22;12498;50.880;12.096;2023-05-10T03:39:18;12.50;99.90
24374;DHT22;12498;50.880;12.096;2023-05-10T03:41:43;11.60;99.90
24374;DHT22;12498;50.880;12.096;2023-05-10T03:44:09;12.60;99.90
24374;DHT22;12498;50.880;12.096;2023-05-10T03:46:35;12.70;99.90
24374;DHT22;12498;50.880;12.096;2023-05-10T03:49:00;12.80;44.50
24374;DHT22;12498;50.880;12.096;2023-05-10T03:51:26;12.90;50.00
24374;DHT22;12498;50.880;12.096;2023-05-10T03:53:54;12.90;1.00
24374;DHT22;12498;50.880;12.096;2023-05-10T03:56:20;13.00;1.00
24374;DHT22;12498;50.880;12.096;2023-05-10T03:58:46;13.40;1.00
24374;DHT22;12498;50.880;12.096;2023-05-10T04:01:12;13.00;1.00
24374;DHT22;12498;50.880;12.096;2023-05-10T04:03:37;13.00;99.90
24374;DHT22;12498;50.880;12.096;2023-05-10T04:06:04;13.20;99.90
24374;DHT22;12498;50.880;12.096;2023-05-10T04:08:30;13.20;99.90
24374;DHT22;12498;50.880;12.096;2023-05-10T04:11:05;13.30;99.90
24374;DHT22;12498;50.880;12.096;2023-05-10T04:13:32;13.40;99.90
24374;DHT22;12498;50.880;12.096;2023-05-10T04:15:57;13.40;99.90
24374;DHT22;12498;50.880;12.096;2023-05-10T04:18:23;13.40;99.90
24374;DHT22;12498;50.880;12.096;2023-05-10T04:20:48;13.70;99.90
24374;DHT22;12498;50.880;12.096;2023-05-10T04:23:14;14.10;99.90
24374;DHT22;12498;50.880;12.096;2023-05-10T04:25:42;14.30;84.00
24374;DHT22;12498;50.880;12.096;2023-05-10T04:28:07;14.40;99.90
24374;DHT22;12498;50.880;12.096;2023-05-10T04:30:33;14.40;1.00
24374;DHT22;12498;50.880;12.096;2023-05-10T04:32:59;14.50;59.50
24374;DHT22;12498;50.880;12.096;2023-05-10T04:35:24;14.60;99.90
24374;DHT22;12498;50.880;12.096;2023-05-10T04:37:50;14.60;99.90
24374;DHT22;12498;50.880;12.096;2023-05-10T04:40:16;14.60;99.90
24374;DHT22;12498;50.880;12.096;2023-05-10T04:42:41;14.70;99.90
24374;DHT22;12498;50.880;12.096;2023-05-10T04:45:07;14.70;99.90
24374;DHT22;12498;50.880;12.096;2023-05-10T04:47:34;14.80;99.90
24374;DHT22;12498;50.880;12.096;2023-05-10T04:50:04;14.80;99.90
24374;DHT22;12498;50.880;12.096;2023-05-10T04:52:30;14.90;1.00
24374;DHT22;12498;50.880;12.096;2023-05-10T04:57:22;15.00;99.90
24374;DHT22;12498;50.880;12.096;2023-05-10T04:59:48;15.10;99.90
24374;DHT22;12498;50.880;12.096;2023-05-10T05:02:13;14.90;99.90
24374;DHT22;12498;50.880;12.096;2023-05-10T05:04:39;15.00;99.90
24374;DHT22;12498;50.880;12.096;2023-05-10T05:07:04;15.00;1.00
24374;DHT22;12498;50.880;12.096;2023-05-10T05:09:30;14.90;99.90
24374;DHT22;12498;50.880;12.096;2023-05-10T05:11:57;14.80;99.90
24374;DHT22;12498;50.880;12.096;2023-05-10T05:14:23;14.80;99.90
24374;DHT22;12498;50.880;12.096;2023-05-10T05:16:53;14.70;99.90
24374;DHT22;12498;50.880;12.096;2023-05-10T05:19:19;14.70;99.90
24374;DHT22;12498;50.880;12.096;2023-05-10T05:21:44;14.80;99.90
24374;DHT22;12498;50.880;12.096;2023-05-10T05:24:10;14.80;99.90
24374;DHT22;12498;50.880;12.096;2023-05-10T05:26:38;14.60;99.90
24374;DHT22;12498;50.880;12.096;2023-05-10T05:29:03;14.50;99.90
24374;DHT22;12498;50.880;12.096;2023-05-10T05:31:29;14.50;99.90
24374;DHT22;12498;50.880;12.096;2023-05-10T05:33:55;14.80;99.90
24374;DHT22;12498;50.880;12.096;2023-05-10T05:36:21;14.60;99.90
24374;DHT22;12498;50.880;12.096;2023-05-10T05:38:46;14.50;99.90
24374;DHT22;12498;50.880;12.096;2023-05-10T05:41:12;14.60;99.90
24374;DHT22;12498;50.880;12.096;2023-05-10T05:43:38;14.60;99.90
24374;DHT22;12498;50.880;12.096;2023-05-10T05:46:03;14.70;99.90
24374;DHT22;12498;50.880;12.096;2023-05-10T05:48:30;14.80;99.90
24374;DHT22;12498;50.880;12.096;2023-05-10T05:50:56;14.70;58.10
24374;DHT22;12498;50.880;12.096;2023-05-10T05:53:22;14.60;68.70
24374;DHT22;12498;50.880;12.096;2023-05-10T05:55:52;14.50;99.90
24374;DHT22;12498;50.880;12.096;2023-05-10T05:58:19;14.60;99.90
24374;DHT22;12498;50.880;12.096;2023-05-10T06:00:45;14.50;99.90
24374;DHT22;12498;50.880;12.096;2023-05-10T06:03:10;14.50;99.90
24374;DHT22;12498;50.880;12.096;2023-05-10T06:05:36;14.50;99.90
24374;DHT22;12498;50.880;12.096;2023-05-10T06:08:01;14.40;99.90
24374;DHT22;12498;50.880;12.096;2023-05-10T06:10:27;14.50;1.00
24374;DHT22;12498;50.880;12.096;2023-05-10T06:12:53;14.40;99.90
24374;DHT22;12498;50.880;12.096;2023-05-10T06:15:18;14.40;99.90
24374;DHT22;12498;50.880;12.096;2023-05-10T06:17:44;14.40;1.00
24374;DHT22;12498;50.880;12.096;2023-05-10T06:20:10;14.40;38.80
24374;DHT22;12498;50.880;12.096;2023-05-10T06:22:36;14.30;99.90
24374;DHT22;12498;50.880;12.096;2023-05-10T06:25:01;14.30;1.00
24374;DHT22;12498;50.880;12.096;2023-05-10T06:27:28;14.20;99.90
24374;DHT22;12498;50.880;12.096;2023-05-10T06:29:53;14.20;1.00
24374;DHT22;12498;50.880;12.096;2023-05-10T06:32:19;14.30;47.90
24374;DHT22;12498;50.880;12.096;2023-05-10T06:34:44;14.30;99.90
24374;DHT22;12498;50.880;12.096;2023-05-10T06:37:10;14.40;99.90
24374;DHT22;12498;50.880;12.096;2023-05-10T06:39:35;14.30;1.00
24374;DHT22;12498;50.880;12.096;2023-05-10T06:42:02;14.40;99.90
24374;DHT22;12498;50.880;12.096;2023-05-10T06:44:28;14.40;99.90
24374;DHT22;12498;50.880;12.096;2023-05-10T06:46:53;14.50;99.90
24374;DHT22;12498;50.880;12.096;2023-05-10T06:49:20;14.40;1.00
24374;DHT22;12498;50.880;12.096;2023-05-10T06:51:46;14.50;99.90
24374;DHT22;12498;50.880;12.096;2023-05-10T06:54:11;14.40;99.90
24374;DHT22;12498;50.880;12.096;2023-05-10T06:56:37;14.40;99.90
24374;DHT22;12498;50.880;12.096;2023-05-10T06:59:03;14.40;99.90
24374;DHT22;12498;50.880;12.096;2023-05-10T07:01:28;14.40;99.90
24374;DHT22;12498;50.880;12.096;2023-05-10T07:03:54;14.40;99.90
24374;DHT22;12498;50.880;12.096;2023-05-10T07:06:19;14.20;59.00
24374;DHT22;12498;50.880;12.096;2023-05-10T07:08:45;14.10;1.00
24374;DHT22;12498;50.880;12.096;2023-05-10T07:11:11;14.30;99.90
24374;DHT22;12498;50.880;12.096;2023-05-10T07:13:36;14.10;99.90
24374;DHT22;12498;50.880;12.096;2023-05-10T07:16:04;14.00;99.90
24374;DHT22;12498;50.880;12.096;2023-05-10T07:18:31;14.10;49.60
24374;DHT22;12498;50.880;12.096;2023-05-10T07:20:57;14.00;1.00
24374;DHT22;12498;50.880;12.096;2023-05-10T07:23:23;14.20;1.00
24374;DHT22;12498;50.880;12.096;2023-05-10T07:25:50;14.10;1.00
24374;DHT22;12498;50.880;12.096;2023-05-10T07:28:17;14.00;99.90
24374;DHT22;12498;50.880;12.096;2023-05-10T07:30:43;14.00;1.00
24374;DHT22;12498;50.880;12.096;2023-05-10T07:35:39;14.00;99.90
24374;DHT22;12498;50.880;12.096;2023-05-10T07:38:05;14.40;1.00
24374;DHT22;12498;50.880;12.096;2023-05-10T07:40:31;14.10;99.90
24374;DHT22;12498;50.880;12.096;2023-05-10T07:42:57;14.20;99.90
24374;DHT22;12498;50.880;12.096;2023-05-10T07:45:23;14.30;21.40
24374;DHT22;12498;50.880;12.096;2023-05-10T07:47:49;14.50;44.00
24374;DHT22;12498;50.880;12.096;2023-05-10T07:50:15;14.80;99.90
24374;DHT22;12498;50.880;12.096;2023-05-10T07:52:40;14.50;99.90
24374;DHT22;12498;50.880;12.096;2023-05-10T07:55:06;14.60;99.90
24374;DHT22;12498;50.880;12.096;2023-05-10T07:57:34;14.70;99.90
24374;DHT22;12498;50.880;12.096;2023-05-10T08:00:00;14.70;99.90
24374;DHT22;12498;50.880;12.096;2023-05-10T08:02:26;14.70;99.90
24374;DHT22;12498;50.880;12.096;2023-05-10T08:04:51;14.70;99.90
24374;DHT22;12498;50.880;12.096;2023-05-10T08:07:18;15.00;99.90
24374;DHT22;12498;50.880;12.096;2023-05-10T08:09:43;14.90;99.90
24374;DHT22;12498;50.880;12.096;2023-05-10T08:12:09;14.70;99.90
24374;DHT22;12498;50.880;12.096;2023-05-10T08:14:35;14.60;99.90
24374;DHT22;12498;50.880;12.096;2023-05-10T08:17:02;14.60;99.90
24374;DHT22;12498;50.880;12.096;2023-05-10T08:19:28;14.60;1.00
24374;DHT22;12498;50.880;12.096;2023-05-10T08:21:54;14.60;1.00
24374;DHT22;12498;50.880;12.096;2023-05-10T08:24:21;14.60;1.00
24374;DHT22;12498;50.880;12.096;2023-05-10T08:26:47;14.50;1.00
24374;DHT22;12498;50.880;12.096;2023-05-10T08:29:13;14.50;1.00
24374;DHT22;12498;50.880;12.096;2023-05-10T08:31:39;14.60;1.00
24374;DHT22;12498;50.880;12.096;2023-05-10T08:34:05;14.90;1.00
24374;DHT22;12498;50.880;12.096;2023-05-10T08:36:30;14.90;1.00
24374;DHT22;12498;50.880;12.096;2023-05-10T08:38:57;15.00;1.00
24374;DHT22;12498;50.880;12.096;2023-05-10T08:41:24;14.90;1.00
24374;DHT22;12498;50.880;12.096;2023-05-10T08:46:19;14.80;1.00
24374;DHT22;12498;50.880;12.096;2023-05-10T08:48:46;15.00;1.00
24374;DHT22;12498;50.880;12.096;2023-05-10T08:51:18;14.80;1.00
24374;DHT22;12498;50.880;12.096;2023-05-10T08:53:45;15.20;1.00
24374;DHT22;12498;50.880;12.096;2023-05-10T08:58:38;14.80;1.00
24374;DHT22;12498;50.880;12.096;2023-05-10T09:01:05;14.90;1.00
24374;DHT22;12498;50.880;12.096;2023-05-10T09:03:31;15.10;1.00
24374;DHT22;12498;50.880;12.096;2023-05-10T09:05:57;15.00;1.00
24374;DHT22;12498;50.880;12.096;2023-05-10T09:23:07;15.80;1.00
24374;DHT22;12498;50.880;12.096;2023-05-10T09:25:33;15.30;1.00
24374;DHT22;12498;50.880;12.096;2023-05-10T09:30:26;15.40;1.00
24374;DHT22;12498;50.880;12.096;2023-05-10T09:32:52;15.30;1.00
24374;DHT22;12498;50.880;12.096;2023-05-10T09:35:20;15.40;1.00
24374;DHT22;12498;50.880;12.096;2023-05-10T09:37:48;15.20;1.00
24374;DHT22;12498;50.880;12.096;2023-05-10T09:42:50;15.20;2.00
24374;DHT22;12498;50.880;12.096;2023-05-10T09:45:16;15.30;17.30
24374;DHT22;12498;50.880;12.096;2023-05-10T09:47:41;15.50;2.30
24374;DHT22;12498;50.880;12.096;2023-05-10T09:50:07;15.30;11.00
24374;DHT22;12498;50.880;12.096;2023-05-10T09:52:46;15.00;1.00
24374;DHT22;12498;50.880;12.096;2023-05-10T09:55:14;15.10;17.60
24374;DHT22;12498;50.880;12.096;2023-05-10T09:57:40;15.20;28.90
24374;DHT22;12498;50.880;12.096;2023-05-10T10:00:06;15.30;22.20
24374;DHT22;12498;50.880;12.096;2023-05-10T10:02:33;15.50;59.50
24374;DHT22;12498;50.880;12.096;2023-05-10T10:05:01;15.80;45.20
24374;DHT22;12498;50.880;12.096;2023-05-10T10:07:28;16.10;65.80
24374;DHT22;12498;50.880;12.096;2023-05-10T10:09:55;15.60;39.80
24374;DHT22;12498;50.880;12.096;2023-05-10T10:12:21;15.80;31.20
24374;DHT22;12498;50.880;12.096;2023-05-10T10:14:47;16.10;29.40
24374;DHT22;12498;50.880;12.096;2023-05-10T10:17:13;16.10;15.10
24374;DHT22;12498;50.880;12.096;2023-05-10T10:27:19;16.60;1.00
24374;DHT22;12498;50.880;12.096;2023-05-10T10:35:40;17.10;1.00
24374;DHT22;12498;50.880;12.096;2023-05-10T10:38:08;17.20;1.00
24374;DHT22;12498;50.880;12.096;2023-05-10T10:40:34;17.10;1.00
24374;DHT22;12498;50.880;12.096;2023-05-10T10:46:12;16.80;1.00
24374;DHT22;12498;50.880;12.096;2023-05-10T10:48:49;17.30;1.00
24374;DHT22;12498;50.880;12.096;2023-05-10T10:53:43;17.00;1.00
24374;DHT22;12498;50.880;12.096;2023-05-10T10:56:11;17.10;1.00
24374;DHT22;12498;50.880;12.096;2023-05-10T10:58:38;17.10;1.00
24374;DHT22;12498;50.880;12.096;2023-05-10T11:01:17;17.30;1.00
24374;DHT22;12498;50.880;12.096;2023-05-10T11:06:40;17.50;1.00
24374;DHT22;12498;50.880;12.096;2023-05-10T11:09:09;17.70;1.00
24374;DHT22;12498;50.880;12.096;2023-05-10T11:11:36;17.60;1.00
24374;DHT22;12498;50.880;12.096;2023-05-10T11:14:06;17.60;1.00
24374;DHT22;12498;50.880;12.096;2023-05-10T11:16:42;17.70;1.00
24374;DHT22;12498;50.880;12.096;2023-05-10T11:19:13;17.80;1.00
24374;DHT22;12498;50.880;12.096;2023-05-10T11:22:14;17.70;1.00
24374;DHT22;12498;50.880;12.096;2023-05-10T11:24:40;17.70;1.00
24374;DHT22;12498;50.880;12.096;2023-05-10T11:27:21;17.80;1.00
24374;DHT22;12498;50.880;12.096;2023-05-10T11:29:51;17.90;1.00
24374;DHT22;12498;50.880;12.096;2023-05-10T11:32:17;18.00;1.00
24374;DHT22;12498;50.880;12.096;2023-05-10T11:34:47;17.90;1.00
24374;DHT22;12498;50.880;12.096;2023-05-10T11:37:13;17.80;1.00
24374;DHT22;12498;50.880;12.096;2023-05-10T11:39:45;18.00;1.00
24374;DHT22;12498;50.880;12.096;2023-05-10T11:42:12;17.70;1.00
24374;DHT22;12498;50.880;12.096;2023-05-10T11:44:38;17.80;1.00
24374;DHT22;12498;50.880;12.096;2023-05-10T11:47:04;17.70;1.00
24374;DHT22;12498;50.880;12.096;2023-05-10T11:49:30;17.90;1.00
24374;DHT22;12498;50.880;12.096;2023-05-10T11:52:08;17.80;1.00
24374;DHT22;12498;50.880;12.096;2023-05-10T11:54:34;17.80;1.00
24374;DHT22;12498;50.880;12.096;2023-05-10T11:57:02;17.90;1.00
24374;DHT22;12498;50.880;12.096;2023-05-10T11:59:28;18.00;1.00
24374;DHT22;12498;50.880;12.096;2023-05-10T12:01:57;18.00;1.00
24374;DHT22;12498;50.880;12.096;2023-05-10T12:04:22;18.10;1.00
24374;DHT22;12498;50.880;12.096;2023-05-10T12:06:48;18.20;1.00
24374;DHT22;12498;50.880;12.096;2023-05-10T12:09:14;18.10;1.00
24374;DHT22;12498;50.880;12.096;2023-05-10T12:11:40;18.20;1.00
24374;DHT22;12498;50.880;12.096;2023-05-10T12:14:07;18.20;1.00
24374;DHT22;12498;50.880;12.096;2023-05-10T12:16:34;18.20;1.00
24374;DHT22;12498;50.880;12.096;2023-05-10T12:19:00;18.20;1.00
24374;DHT22;12498;50.880;12.096;2023-05-10T12:21:28;18.50;99.90
24374;DHT22;12498;50.880;12.096;2023-05-10T12:23:58;18.40;99.90
24374;DHT22;12498;50.880;12.096;2023-05-10T12:26:25;18.50;1.00
24374;DHT22;12498;50.880;12.096;2023-05-10T12:28:54;18.60;99.90
24374;DHT22;12498;50.880;12.096;2023-05-10T12:31:20;18.70;99.90
24374;DHT22;12498;50.880;12.096;2023-05-10T12:33:46;19.00;99.90
24374;DHT22;12498;50.880;12.096;2023-05-10T12:36:14;18.80;99.90
24374;DHT22;12498;50.880;12.096;2023-05-10T12:38:43;18.90;99.90
24374;DHT22;12498;50.880;12.096;2023-05-10T12:41:12;18.80;99.90
24374;DHT22;12498;50.880;12.096;2023-05-10T12:43:38;19.00;99.90
24374;DHT22;12498;50.880;12.096;2023-05-10T12:46:14;19.10;77.40
24374;DHT22;12498;50.880;12.096;2023-05-10T12:48:42;18.90;99.90
24374;DHT22;12498;50.880;12.096;2023-05-10T12:51:08;18.70;99.90
24374;DHT22;12498;50.880;12.096;2023-05-10T12:53:41;18.60;99.90
24374;DHT22;12498;50.880;12.096;2023-05-10T12:56:07;18.60;94.40
24374;DHT22;12498;50.880;12.096;2023-05-10T12:58:33;18.40;97.40
24374;DHT22;12498;50.880;12.096;2023-05-10T13:00:59;18.00;99.90
24374;DHT22;12498;50.880;12.096;2023-05-10T13:03:25;17.80;99.90
24374;DHT22;12498;50.880;12.096;2023-05-10T13:05:51;17.60;99.90
24374;DHT22;12498;50.880;12.096;2023-05-10T13:08:16;17.60;1.00
24374;DHT22;12498;50.880;12.096;2023-05-10T13:10:42;17.20;1.00
24374;DHT22;12498;50.880;12.096;2023-05-10T13:13:08;17.20;1.00
24374;DHT22;12498;50.880;12.096;2023-05-10T13:15:34;17.10;1.00
24374;DHT22;12498;50.880;12.096;2023-05-10T13:17:59;17.00;1.00
24374;DHT22;12498;50.880;12.096;2023-05-10T13:20:25;16.90;1.00
24374;DHT22;12498;50.880;12.096;2023-05-10T13:22:54;16.80;1.00
24374;DHT22;12498;50.880;12.096;2023-05-10T13:25:19;16.70;40.00
24374;DHT22;12498;50.880;12.096;2023-05-10T13:27:45;16.60;42.50
24374;DHT22;12498;50.880;12.096;2023-05-10T13:30:11;16.80;53.30
24374;DHT22;12498;50.880;12.096;2023-05-10T13:32:37;16.70;80.30
24374;DHT22;12498;50.880;12.096;2023-05-10T13:35:03;16.50;95.50
24374;DHT22;12498;50.880;12.096;2023-05-10T13:37:30;16.50;99.90
24374;DHT22;12498;50.880;12.096;2023-05-10T13:39:56;16.30;99.90
24374;DHT22;12498;50.880;12.096;2023-05-10T13:42:24;16.30;99.90
24374;DHT22;12498;50.880;12.096;2023-05-10T13:44:50;16.10;99.90
24374;DHT22;12498;50.880;12.096;2023-05-10T13:47:16;16.00;99.90
24374;DHT22;12498;50.880;12.096;2023-05-10T13:49:42;15.90;99.90
24374;DHT22;12498;50.880;12.096;2023-05-10T13:52:08;15.80;99.90
24374;DHT22;12498;50.880;12.096;2023-05-10T13:54:38;15.80;99.90
24374;DHT22;12498;50.880;12.096;2023-05-10T13:57:04;15.60;99.90
24374;DHT22;12498;50.880;12.096;2023-05-10T13:59:30;15.70;99.90
24374;DHT22;12498;50.880;12.096;2023-05-10T14:01:59;15.50;99.90
24374;DHT22;12498;50.880;12.096;2023-05-10T14:04:28;15.50;99.90
24374;DHT22;12498;50.880;12.096;2023-05-10T14:06:53;15.40;99.90
24374;DHT22;12498;50.880;12.096;2023-05-10T14:09:19;15.60;99.90
24374;DHT22;12498;50.880;12.096;2023-05-10T14:11:45;15.60;99.90
24374;DHT22;12498;50.880;12.096;2023-05-10T14:14:11;15.60;99.90
24374;DHT22;12498;50.880;12.096;2023-05-10T14:16:38;15.70;99.90
24374;DHT22;12498;50.880;12.096;2023-05-10T14:19:03;16.10;99.90
24374;DHT22;12498;50.880;12.096;2023-05-10T14:21:29;16.20;99.90
24374;DHT22;12498;50.880;12.096;2023-05-10T14:23:56;16.40;99.90
24374;DHT22;12498;50.880;12.096;2023-05-10T14:31:13;16.50;99.90
24374;DHT22;12498;50.880;12.096;2023-05-10T14:33:40;16.60;99.90
24374;DHT22;12498;50.880;12.096;2023-05-10T14:36:06;16.90;99.90
24374;DHT22;12498;50.880;12.096;2023-05-10T14:38:32;16.80;99.90
24374;DHT22;12498;50.880;12.096;2023-05-10T14:45:50;16.80;99.90
24374;DHT22;12498;50.880;12.096;2023-05-10T14:48:16;16.80;99.90
24374;DHT22;12498;50.880;12.096;2023-05-10T14:50:43;17.00;99.90
24374;DHT22;12498;50.880;12.096;2023-05-10T14:53:09;17.00;99.90
24374;DHT22;12498;50.880;12.096;2023-05-10T14:55:34;17.00;99.90
24374;DHT22;12498;50.880;12.096;2023-05-10T14:58:02;17.20;99.90
24374;DHT22;12498;50.880;12.096;2023-05-10T15:00:30;17.30;99.90
24374;DHT22;12498;50.880;12.096;2023-05-10T15:02:56;17.40;99.90
24374;DHT22;12498;50.880;12.096;2023-05-10T15:05:22;17.60;99.90
24374;DHT22;12498;50.880;12.096;2023-05-10T15:07:48;17.60;99.90
24374;DHT22;12498;50.880;12.096;2023-05-10T15:10:14;17.80;99.90
24374;DHT22;12498;50.880;12.096;2023-05-10T15:12:40;18.00;47.30
24374;DHT22;12498;50.880;12.096;2023-05-10T15:15:07;18.10;30.20
24374;DHT22;12498;50.880;12.096;2023-05-10T15:17:33;18.30;1.00
24374;DHT22;12498;50.880;12.096;2023-05-10T15:19:59;18.20;1.00
24374;DHT22;12498;50.880;12.096;2023-05-10T15:22:24;18.30;9.70
24374;DHT22;12498;50.880;12.096;2023-05-10T15:24:50;18.50;4.90
24374;DHT22;12498;50.880;12.096;2023-05-10T15:27:16;18.70;1.00
24374;DHT22;12498;50.880;12.096;2023-05-10T15:29:42;19.10;1.00
24374;DHT22;12498;50.880;12.096;2023-05-10T15:32:07;19.10;1.00
24374;DHT22;12498;50.880;12.096;2023-05-10T15:36:59;21.00;99.90
24374;DHT22;12498;50.880;12.096;2023-05-10T15:39:25;19.70;99.90
24374;DHT22;12498;50.880;12.096;2023-05-10T15:44:16;19.60;99.90
24374;DHT22;12498;50.880;12.096;2023-05-10T15:46:43;19.50;91.70
24374;DHT22;12498;50.880;12.096;2023-05-10T15:49:09;19.30;99.90
24374;DHT22;12498;50.880;12.096;2023-05-10T15:51:35;19.40;99.90
24374;DHT22;12498;50.880;12.096;2023-05-10T15:54:01;19.50;99.90
24374;DHT22;12498;50.880;12.096;2023-05-10T15:56:27;19.10;28.20
24374;DHT22;12498;50.880;12.096;2023-05-10T15:58:53;19.20;1.00
24374;DHT22;12498;50.880;12.096;2023-05-10T16:01:19;19.00;99.90
24374;DHT22;12498;50.880;12.096;2023-05-10T16:03:45;19.10;97.40
24374;DHT22;12498;50.880;12.096;2023-05-10T16:06:11;18.90;99.90
24374;DHT22;12498;50.880;12.096;2023-05-10T16:08:36;18.80;99.90
24374;DHT22;12498;50.880;12.096;2023-05-10T16:11:03;18.60;99.90
24374;DHT22;12498;50.880;12.096;2023-05-10T16:13:29;18.80;99.90
24374;DHT22;12498;50.880;12.096;2023-05-10T16:15:54;18.50;99.90
24374;DHT22;12498;50.880;12.096;2023-05-10T16:18:21;18.30;99.90
24374;DHT22;12498;50.880;12.096;2023-05-10T16:20:47;18.20;1.00
24374;DHT22;12498;50.880;12.096;2023-05-10T16:23:13;18.20;1.00
24374;DHT22;12498;50.880;12.096;2023-05-10T16:25:39;18.20;1.00
24374;DHT22;12498;50.880;12.096;2023-05-10T16:28:05;18.20;1.00
24374;DHT22;12498;50.880;12.096;2023-05-10T17:24:09;16.60;99.90
24374;DHT22;12498;50.880;12.096;2023-05-10T17:58:16;16.30;99.90
24374;DHT22;12498;50.880;12.096;2023-05-10T18:00:42;15.80;99.90
24374;DHT22;12498;50.880;12.096;2023-05-10T18:03:07;15.80;99.90
24374;DHT22;12498;50.880;12.096;2023-05-10T18:05:37;15.80;99.90
24374;DHT22;12498;50.880;12.096;2023-05-10T18:20:20;16.50;99.90
24374;DHT22;12498;50.880;12.096;2023-05-10T18:22:45;15.50;99.90
24374;DHT22;12498;50.880;12.096;2023-05-10T18:25:11;15.40;99.90
24374;DHT22;12498;50.880;12.096;2023-05-10T18:30:03;15.10;99.90
24374;DHT22;12498;50.880;12.096;2023-05-10T18:32:30;15.50;99.90
24374;DHT22;12498;50.880;12.096;2023-05-10T18:34:56;15.30;99.90
24374;DHT22;12498;50.880;12.096;2023-05-10T18:37:22;15.20;99.90
24374;DHT22;12498;50.880;12.096;2023-05-10T18:39:48;15.10;99.90